Main page
METAR-TAF:

METAR-TAF

Airports :

Geneva, Switzerland

Geneva Airport

latitude: 46-15N, longitude: 006-08E, elevation: 420 m

Current weather observation

The report was made 27 minutes ago, at 11:20 UTC
Wind 4 kt from the East/Northeast, varying between North and East/Southeast
Temperature 22°C
Humidity 46%
Pressure 1023 hPa
Visibility 10 km or more
no clouds below 1500 m and no cumulonimbus

METAR: LSGG 211120Z 07004KT 360V110 CAVOK 22/10 Q1023 NOSIG

Time: 13:47 (11:47 UTC)

Forecast

The report was made 22 minutes ago, at 11:25 UTC
Forecast valid from 21 at 12 UTC to 22 at 18 UTC
Wind 9 kt from the Northeast
Visibility 10 km or more
Few clouds at a height of 9000 ft
Becoming
from 21 at 18 UTC to 21 at 20 UTC
Wind 3 kt from variable directions
Visibility 10 km or more
no clouds below 1500 m and no cumulonimbus

TAF: LSGG 211125Z 2112/2218 05009KT 9999 FEW090 TX25/2115Z TN13/2205Z TX28/2215Z BECMG 2118/2120 VRB03KT CAVOK

Weather observations and forecasts of more than 4000 airports (METAR and TAF reports).

The available stations are represented by yellow and red dots on the map.

Hover mouse over dot to see the name of the station.

Then click to see weather observations and forecasts.

To change the map : click on the green buttons with a black cross to zoom in, on the green button with a dash to zoom out, or on the green arrows for adjacent maps.


METAR-TAF: